Saint Peters, Missouri
Current Conditions -  °F | °C
As of 4:54 PM on Tuesday 25 Nov 2014 (Local Time) from KSUS Reporting Station
Clear Clear  
Wind Chill: 33°   Ceiling: Unl
Heat Index: 33°   Visibility: 10mi
Dew Point: 26°   Wind: 0mph
Humidity: 75%   Direction: NA
Pressure: 30.15"   Gusts: NA
Location:  38.8°N, 90.63°W
Report Text: KSUS 252254Z 00000KT 10SM CLR 01/M03 A3015 RMK AO2 SLP219 T00061033
Loading
Personal Weather Stations






























Interactive Weather Map New forecast layout! Learn more

10-Day Weather Forecast

Advertisements
Track Severe Weather on mobile